Grundy Center, IA

12:06 PM CST on February 20, 2017 (GMT -0600)
Grundy Center Elementary | | Change Station

Elev 1024 ft 42.36 °N, 92.78 °W | Updated 15 seconds ago

Rain
Rain
55.0 °F
Feels Like 55.0 °F
N
17.0
Wind Variable Wind from SSE
Gusts 21.0 mph

Today
High -- | Low -- °F
--% Chance of Precip.
Yesterday
High -- | Low -- °F
Precip. -- in
Pressure 29.82 in
Visibility 2.0 miles
Clouds Mostly Cloudy 3000 ft
Mostly Cloudy 3600 ft
Overcast 6000 ft
Dew Point 53 °F
Humidity 93%
Rainfall 0.23 in
Snow Depth Not available.
6:59 AM 5:50 PM
Waning Crescent, 32% visible
METAR KMIW 201753Z AUTO 15012KT 2SM RA BR BKN030 BKN036 OVC060 14/13 A2981 RMK AO2 RAB23 SLP096 P0005 60006 T01390128 10139 20100 56012
Pressure 29.82 in
Visibility 2.0 miles
Clouds Mostly Cloudy 3000 ft
Mostly Cloudy 3600 ft
Overcast 6000 ft
Dew Point 53 °F
Humidity 93%
Rainfall 0.23 in
Snow Depth Not available.
6:59 AM 5:50 PM
Waning Crescent, 32% visible
METAR KMIW 201753Z AUTO 15012KT 2SM RA BR BKN030 BKN036 OVC060 14/13 A2981 RMK AO2 RAB23 SLP096 P0005 60006 T01390128 10139 20100 56012

Get Your Daily Forecast Email!

Thanks for signing up!

Be on the lookout for a verification email in your inbox.

You'll start receiving the daily forecast at 8 AM.

×

10-Day Weather Forecast

Almanac

Astronomy

Feb. 20, 2017 Rise Set
Actual Time
Civil Twilight
Nautical Twilight
Astronomical Twilight
Moon
Length of Visible Light
Length of Day
Tomorrow will be .
, % of the Moon is Illuminated

Today's Extremes

State Highs State Lows

Community

WunderPhotos

Upload Photos

1,962,540 photos uploaded!

WunderBlog® & News

Nearby

Air Quality

  Air Quality AQ Index Pollutant
Not available.

Snow Depth

Station Depth Elevation

Earthquake Activity

City Distance Mag. Time & Date
Minimum magnitude displayed is 2.5.

Coastal Water Temperatures

Place Temperature

Stations

Nearby Weather Stations

Station Location Temp. Windchill Dew Point Humidity Wind Precip. Elev Updated Type
                   

Watches & Warnings

There are currently no watches in effect.